Time;durP1;ratioP1;P1;durP2;ratioP2;P2;SDS_P1;SDS_P2;PMS_P1;PMS_P2;Temp;Humidity;BMP_temperature;BMP_pressure;BME280_temperature;BME280_humidity;BME280_pressure;Samples;Min_cycle;Max_cycle;Signal;HPM_P1;HPM_P2
2022/05/09 00:00:41;;;;;;;8.00;4.10;;;;;;;9.60;63.00;101534.33;88201;1275;92892;-59
2022/05/09 00:02:50;;;;;;;8.20;4.80;;;;;;;9.56;63.02;101534.46;88155;1274;79567;-58
2022/05/09 00:05:00;;;;;;;8.80;4.00;;;;;;;9.54;63.13;101538.31;88174;1274;82606;-58
2022/05/09 00:07:12;;;;;;;9.10;4.00;;;;;;;9.51;63.29;101543.85;88197;1274;97765;-59
2022/05/09 00:09:21;;;;;;;8.70;5.00;;;;;;;9.46;63.46;101549.17;88166;1274;87619;-69
2022/05/09 00:11:30;;;;;;;9.40;4.50;;;;;;;9.43;63.50;101548.73;88167;1274;94180;-69
2022/05/09 00:13:42;;;;;;;8.00;4.20;;;;;;;9.41;63.63;101550.27;88174;1275;81685;-68
2022/05/09 00:15:51;;;;;;;5.90;4.10;;;;;;;9.38;63.89;101554.17;88192;1274;81022;-59
2022/05/09 00:18:00;;;;;;;7.60;4.80;;;;;;;9.36;64.01;101556.66;88152;1274;97882;-59
2022/05/09 00:20:12;;;;;;;7.60;4.10;;;;;;;9.35;64.06;101559.10;88152;1274;87029;-63
2022/05/09 00:22:21;;;;;;;8.90;4.20;;;;;;;9.34;64.31;101562.08;88141;1274;94232;-59
2022/05/09 00:24:30;;;;;;;6.00;4.10;;;;;;;9.31;64.36;101562.36;88135;1274;81390;-68
2022/05/09 00:26:39;;;;;;;6.80;3.90;;;;;;;9.28;64.43;101564.19;88194;1274;79455;-68
2022/05/09 00:28:48;;;;;;;7.70;4.10;;;;;;;9.26;64.70;101566.48;88180;1274;99257;-66
2022/05/09 00:30:57;;;;;;;8.90;4.30;;;;;;;9.27;64.82;101565.89;88200;1274;88711;-67
2022/05/09 00:33:06;;;;;;;6.90;4.40;;;;;;;9.28;64.82;101565.95;88163;1274;95498;-68
2022/05/09 00:35:16;;;;;;;8.10;4.90;;;;;;;9.28;64.93;101572.75;88146;1276;78576;-68
2022/05/09 00:37:24;;;;;;;6.80;4.10;;;;;;;9.26;64.94;101575.11;88191;1274;81358;-68
2022/05/09 00:39:33;;;;;;;7.70;4.00;;;;;;;9.23;65.06;101578.52;88178;1274;98255;-69
2022/05/09 00:41:44;;;;;;;6.50;4.00;;;;;;;9.18;65.10;101575.97;88152;1276;89884;-69
2022/05/09 00:43:57;;;;;;;6.50;4.30;;;;;;;9.13;65.34;101580.94;88140;1275;93418;-58
2022/05/09 00:46:06;;;;;;;5.70;4.00;;;;;;;9.10;65.36;101580.36;88178;1274;81379;-58
2022/05/09 00:48:15;;;;;;;6.40;4.00;;;;;;;9.07;65.43;101579.39;88191;1275;81361;-57
2022/05/09 00:50:29;;;;;;;5.90;3.90;;;;;;;9.05;65.60;101588.91;88159;1274;96703;-58
2022/05/09 00:52:40;;;;;;;;;;;;;;;9.04;65.81;101590.11;88215;1274;87781;-58
2022/05/09 00:54:54;;;;;;;7.10;3.90;;;;;;;9.05;65.85;101594.86;88066;1278;94466;-58
2022/05/09 00:57:08;;;;;;;6.50;4.20;;;;;;;9.07;66.01;101597.69;88144;1275;81152;-59
2022/05/09 00:59:20;;;;;;;5.90;4.00;;;;;;;9.09;65.89;101598.59;88236;1275;81661;-58
2022/05/09 01:01:32;;;;;;;5.30;4.10;;;;;;;9.09;66.10;101598.81;88179;1274;98601;-58
2022/05/09 01:03:50;;;;;;;6.60;4.40;;;;;;;9.05;66.10;101598.42;88190;1274;88774;-59
2022/05/09 01:06:02;;;;;;;8.30;4.10;;;;;;;9.01;66.14;101602.63;88161;1275;94479;-68
2022/05/09 01:08:14;;;;;;;5.60;4.00;;;;;;;8.98;66.27;101599.13;88163;1274;78784;-68
2022/05/09 01:10:26;;;;;;;4.70;3.80;;;;;;;8.98;66.08;101601.88;88184;1275;81461;-58
2022/05/09 01:12:39;;;;;;;8.00;4.10;;;;;;;8.94;66.13;101603.31;88163;1275;100410;-58
2022/05/09 01:14:48;;;;;;;5.60;3.70;;;;;;;8.88;66.30;101610.71;88203;1274;87356;-68
2022/05/09 01:17:00;;;;;;;5.10;3.80;;;;;;;8.82;66.30;101611.23;88167;1274;95868;-68
2022/05/09 01:19:25;;;;;;;5.70;4.30;;;;;;;8.78;66.34;101613.95;88161;1274;80570;-58
2022/05/09 01:21:37;;;;;;;5.60;4.10;;;;;;;8.73;66.32;101611.63;88214;1274;83454;-58
2022/05/09 01:23:46;;;;;;;6.60;3.80;;;;;;;8.70;66.31;101618.28;88190;1274;98264;-61
2022/05/09 01:25:57;;;;;;;6.80;4.20;;;;;;;8.64;66.45;101620.77;88158;1275;88011;-69
2022/05/09 01:28:07;;;;;;;5.60;3.30;;;;;;;8.61;66.61;101620.21;88137;1276;94916;-68
2022/05/09 01:30:24;;;;;;;6.20;3.80;;;;;;;8.61;66.78;101619.31;88173;1275;81570;-57
2022/05/09 01:32:38;;;;;;;6.30;3.50;;;;;;;8.61;66.83;101619.11;88189;1274;81906;-59
2022/05/09 01:34:55;;;;;;;6.40;3.70;;;;;;;8.61;66.84;101618.16;88195;1274;98437;-58
2022/05/09 01:37:10;;;;;;;6.00;3.50;;;;;;;8.64;66.70;101618.64;88162;1274;88483;-60
2022/05/09 01:39:19;;;;;;;5.10;3.30;;;;;;;8.67;66.85;101617.76;88155;1275;94929;-59
2022/05/09 01:41:29;;;;;;;5.70;3.60;;;;;;;8.68;66.59;101612.50;88155;1276;78685;-61
2022/05/09 01:43:46;;;;;;;6.60;3.90;;;;;;;8.65;66.54;101619.64;88132;1276;82165;-58
2022/05/09 01:45:55;;;;;;;5.20;3.70;;;;;;;8.62;66.47;101623.70;88157;1274;99669;-69
2022/05/09 01:50:30;;;;;;;6.70;3.40;;;;;;;8.54;66.25;101628.73;88186;1274;93186;-68
2022/05/09 01:52:44;;;;;;;6.00;3.30;;;;;;;8.49;66.37;101629.05;88170;1275;77889;-69
2022/05/09 01:54:53;;;;;;;5.30;3.30;;;;;;;8.45;66.33;101636.65;88168;1274;82333;-59
2022/05/09 01:57:07;;;;;;;4.10;3.20;;;;;;;8.40;66.29;101637.15;88187;1275;99336;-59
2022/05/09 01:59:20;;;;;;;6.30;3.40;;;;;;;8.36;66.34;101637.71;88067;1277;86627;-59
2022/05/09 02:01:35;;;;;;;5.50;3.30;;;;;;;8.31;66.52;101635.60;87916;1274;318859;-58
2022/05/09 02:03:48;;;;;;;4.10;2.90;;;;;;;8.30;66.50;101638.09;88163;1274;81962;-60
2022/05/09 02:05:56;;;;;;;4.90;3.00;;;;;;;8.31;66.48;101637.05;88209;1274;83713;-69
2022/05/09 02:08:06;;;;;;;3.50;2.80;;;;;;;8.31;66.47;101638.11;88163;1274;96762;-68
2022/05/09 02:10:16;;;;;;;5.10;3.00;;;;;;;8.33;66.47;101639.73;88185;1274;88966;-59
2022/05/09 02:12:28;;;;;;;4.70;2.90;;;;;;;8.35;66.51;101641.17;88172;1275;93208;-58
2022/05/09 02:14:38;;;;;;;4.80;3.40;;;;;;;8.30;66.42;101641.06;88149;1275;78357;-68
2022/05/09 02:16:50;;;;;;;4.80;3.40;;;;;;;8.28;66.46;101645.60;88177;1275;81721;-69
2022/05/09 02:18:59;;;;;;;5.30;2.60;;;;;;;8.23;66.17;101647.08;88191;1274;99182;-59
2022/05/09 02:21:08;;;;;;;4.50;2.70;;;;;;;8.19;66.21;101649.68;88198;1274;88566;-58
2022/05/09 02:23:17;;;;;;;3.70;2.90;;;;;;;8.15;66.22;101650.26;88194;1274;94102;-59
2022/05/09 02:25:30;;;;;;;5.90;3.00;;;;;;;8.10;66.20;101654.43;88197;1274;77618;-70
2022/05/09 02:27:39;;;;;;;5.10;3.30;;;;;;;8.06;66.31;101655.55;88160;1274;79439;-67
2022/05/09 02:29:48;;;;;;;7.00;3.20;;;;;;;8.02;66.24;101657.56;88207;1275;97170;-58
2022/05/09 02:31:57;;;;;;;7.10;3.20;;;;;;;7.97;66.64;101659.05;88190;1274;88331;-58
2022/05/09 02:34:06;;;;;;;4.80;3.20;;;;;;;7.95;66.57;101665.60;88153;1274;96079;-58
2022/05/09 02:36:15;;;;;;;5.10;2.90;;;;;;;7.94;66.48;101667.84;88190;1274;81050;-60
2022/05/09 02:38:27;;;;;;;4.20;2.70;;;;;;;7.96;66.57;101667.30;88178;1274;82706;-58
2022/05/09 02:40:36;;;;;;;3.90;2.80;;;;;;;7.97;66.45;101665.21;88171;1274;99397;-68
2022/05/09 02:42:49;;;;;;;5.80;3.10;;;;;;;7.98;66.45;101669.44;88193;1274;87284;-69
2022/05/09 02:44:58;;;;;;;6.20;2.80;;;;;;;7.97;66.19;101671.14;88154;1274;95443;-58
2022/05/09 02:47:08;;;;;;;6.60;3.10;;;;;;;7.93;66.31;101670.73;88136;1274;80595;-58
2022/05/09 02:49:19;;;;;;;5.30;3.40;;;;;;;7.90;66.31;101671.96;88206;1274;83748;-70
2022/05/09 02:51:28;;;;;;;6.70;2.80;;;;;;;7.88;66.32;101673.64;88197;1274;97680;-68
2022/05/09 02:53:38;;;;;;;4.70;2.90;;;;;;;7.85;66.25;101676.54;88186;1274;88138;-69
2022/05/09 02:55:50;;;;;;;7.80;3.70;;;;;;;7.81;66.10;101678.33;88188;1274;94552;-58
2022/05/09 02:58:00;;;;;;;3.90;2.60;;;;;;;7.79;66.15;101682.18;88172;1274;77515;-58
2022/05/09 03:00:14;;;;;;;4.60;2.70;;;;;;;7.75;66.07;101684.80;88182;1274;81381;-58
2022/05/09 03:02:25;;;;;;;4.10;2.70;;;;;;;7.72;66.06;101685.62;88206;1274;98202;-59
2022/05/09 03:04:41;;;;;;;5.30;3.20;;;;;;;7.68;66.14;101681.71;88220;1274;89122;-58
2022/05/09 03:06:50;;;;;;;4.40;2.70;;;;;;;7.66;66.07;101690.42;88174;1274;94473;-58
2022/05/09 03:09:02;;;;;;;7.10;2.80;;;;;;;7.69;66.07;101691.80;88164;1274;80363;-67
2022/05/09 03:11:11;;;;;;;4.00;2.50;;;;;;;7.73;66.04;101699.48;88141;1274;82491;-68
2022/05/09 03:13:20;;;;;;;4.30;2.70;;;;;;;7.78;66.16;101699.48;88151;1274;98721;-69
2022/05/09 03:15:35;;;;;;;4.90;3.00;;;;;;;7.83;65.98;101695.77;88180;1274;87959;-69
2022/05/09 03:17:44;;;;;;;4.90;2.60;;;;;;;7.87;65.74;101700.03;88189;1274;95594;-69
2022/05/09 03:19:53;;;;;;;5.90;2.60;;;;;;;7.89;65.71;101699.17;88123;1274;80031;-58
2022/05/09 03:22:06;;;;;;;4.70;2.80;;;;;;;7.88;65.52;101699.05;88171;1274;81591;-59
2022/05/09 03:24:15;;;;;;;5.70;2.80;;;;;;;7.87;65.56;101698.95;88059;1277;98525;-67
2022/05/09 03:26:25;;;;;;;3.60;2.60;;;;;;;7.89;65.50;101700.58;88166;1275;85834;-69
2022/05/09 03:28:35;;;;;;;4.20;2.50;;;;;;;7.91;65.33;101699.10;88163;1277;93035;-69
2022/05/09 03:30:44;;;;;;;5.10;2.80;;;;;;;7.93;65.27;101708.14;88162;1276;80041;-58
2022/05/09 03:32:53;;;;;;;4.70;3.40;;;;;;;7.93;65.26;101708.48;88122;1277;82871;-58
2022/05/09 03:35:03;;;;;;;5.70;2.80;;;;;;;7.95;65.26;101710.63;88086;1278;98824;-59
2022/05/09 03:37:11;;;;;;;6.30;3.40;;;;;;;8.05;65.18;101716.84;88158;1277;86253;-58
2022/05/09 03:39:21;;;;;;;6.10;2.80;;;;;;;8.60;64.86;101719.05;88140;1277;92578;-58
2022/05/09 03:41:30;;;;;;;4.10;3.00;;;;;;;9.30;64.10;101717.84;88147;1277;77033;-58
2022/05/09 03:43:39;;;;;;;4.80;2.60;;;;;;;9.83;63.39;101721.20;88131;1277;83092;-59
2022/05/09 03:45:53;;;;;;;3.60;2.60;;;;;;;10.41;62.93;101721.38;88110;1277;98635;-59
2022/05/09 03:48:00;;;;;;;;;;;;;;;11.54;61.96;101720.20;88169;1277;85751;-58
2022/05/09 03:50:13;;;;;;;4.40;2.80;;;;;;;12.58;60.50;101728.27;88146;1277;94294;-59
2022/05/09 03:52:22;;;;;;;3.90;2.20;;;;;;;13.45;59.24;101725.59;88130;1277;78266;-57
2022/05/09 03:54:31;;;;;;;4.80;2.70;;;;;;;14.16;57.77;101720.70;88146;1276;82204;-59
2022/05/09 03:56:40;;;;;;;3.90;2.60;;;;;;;14.83;56.83;101724.59;88101;1277;97527;-59
2022/05/09 03:58:52;;;;;;;4.80;2.80;;;;;;;15.49;54.96;101730.79;88155;1277;89668;-66
2022/05/09 04:01:01;;;;;;;5.80;2.90;;;;;;;15.88;53.58;101729.64;88157;1276;94438;-69
2022/05/09 04:03:14;;;;;;;6.90;2.60;;;;;;;16.25;52.46;101732.14;88128;1276;78534;-68
2022/05/09 04:05:23;;;;;;;6.00;3.20;;;;;;;16.83;51.60;101734.44;88138;1276;82733;-69
2022/05/09 04:07:35;;;;;;;8.90;3.30;;;;;;;17.26;50.10;101738.15;88178;1276;96807;-68
2022/05/09 04:09:44;;;;;;;8.00;3.10;;;;;;;16.83;48.82;101734.46;88118;1277;87013;-69
2022/05/09 04:11:53;;;;;;;7.40;3.30;;;;;;;15.92;48.92;101737.59;88142;1276;95854;-68
2022/05/09 04:14:02;;;;;;;11.20;3.00;;;;;;;14.88;49.40;101741.87;88176;1275;79051;-68
2022/05/09 04:18:40;;;;;;;13.20;6.60;;;;;;;13.43;50.16;101749.31;88121;1278;99240;-68
2022/05/09 04:20:51;;;;;;;22.70;11.30;;;;;;;12.84;50.79;101752.95;88133;1277;86389;-58
2022/05/09 04:23:01;;;;;;;21.40;9.50;;;;;;;12.45;51.10;101752.06;88167;1277;93989;-58
2022/05/09 04:25:12;;;;;;;28.80;11.10;;;;;;;12.07;51.55;101750.33;88163;1277;79248;-59
2022/05/09 04:27:21;;;;;;;36.50;13.40;;;;;;;11.77;52.02;101753.45;88181;1277;80982;-59
2022/05/09 04:29:30;;;;;;;31.10;14.60;;;;;;;11.63;52.33;101753.98;88166;1277;97777;-69
2022/05/09 04:31:42;;;;;;;25.20;13.50;;;;;;;11.38;52.68;101757.61;88131;1276;88993;-69
2022/05/09 04:33:51;;;;;;;28.50;14.40;;;;;;;11.22;52.97;101760.10;88145;1278;94181;-68
2022/05/09 04:36:04;;;;;;;28.60;13.30;;;;;;;11.27;53.07;101759.29;88125;1276;78640;-68
2022/05/09 04:38:21;;;;;;;28.50;11.90;;;;;;;11.48;53.15;101763.52;88167;1276;80413;-68
2022/05/09 04:40:36;;;;;;;26.20;10.70;;;;;;;12.19;52.61;101758.64;88127;1276;99224;-59
2022/05/09 04:42:45;;;;;;;23.70;9.80;;;;;;;13.55;51.70;101758.92;88148;1277;87922;-59
2022/05/09 04:44:57;;;;;;;24.90;10.50;;;;;;;15.28;50.54;101756.04;88155;1276;93704;-59
2022/05/09 04:47:07;;;;;;;15.70;5.80;;;;;;;17.02;48.66;101758.84;88132;1276;78767;-57
2022/05/09 04:49:19;;;;;;;13.50;5.40;;;;;;;17.93;45.83;101755.93;88167;1276;80576;-59
2022/05/09 04:51:28;;;;;;;11.50;4.60;;;;;;;18.78;44.76;101754.08;88148;1276;97129;-58
2022/05/09 04:53:37;;;;;;;8.10;3.60;;;;;;;19.29;42.15;101748.88;88130;1276;87328;-63
2022/05/09 04:55:50;;;;;;;7.60;3.70;;;;;;;19.76;40.96;101757.98;88125;1276;93824;-59
2022/05/09 04:57:59;;;;;;;9.80;4.10;;;;;;;19.88;39.79;101756.70;88105;1276;79130;-58
2022/05/09 05:00:12;;;;;;;11.80;5.10;;;;;;;20.50;39.73;101761.17;88173;1277;82863;-67
2022/05/09 05:02:21;;;;;;;13.30;5.30;;;;;;;21.47;39.57;101761.99;88149;1276;97511;-67
2022/05/09 05:04:33;;;;;;;18.20;8.60;;;;;;;22.20;37.87;101763.42;88157;1276;89041;-59
2022/05/09 05:06:42;;;;;;;6.70;3.40;;;;;;;22.36;36.28;101759.81;88140;1276;95966;-67
2022/05/09 05:08:50;;;;;;;7.30;3.00;;;;;;;22.53;35.95;101757.69;88103;1276;79984;-59
2022/05/09 05:11:00;;;;;;;6.30;3.10;;;;;;;22.74;35.05;101765.83;88129;1277;81048;-58
2022/05/09 05:13:09;;;;;;;8.40;3.50;;;;;;;22.94;34.42;101764.34;88157;1276;98058;-61
2022/05/09 05:15:19;;;;;;;7.30;2.90;;;;;;;23.34;34.59;101761.91;88132;1276;89197;-59
2022/05/09 05:17:28;;;;;;;5.30;2.70;;;;;;;23.93;33.24;101769.92;88133;1276;95427;-61
2022/05/09 05:19:43;;;;;;;10.60;5.20;;;;;;;23.99;32.41;101769.13;88119;1276;78467;-64
2022/05/09 05:21:52;;;;;;;97.60;87.20;;;;;;;24.24;32.57;101769.59;88136;1276;83286;-65
2022/05/09 05:24:01;;;;;;;14.00;8.80;;;;;;;24.53;31.31;101773.14;88100;1277;97968;-59
2022/05/09 05:26:13;;;;;;;6.20;4.00;;;;;;;24.80;31.47;101771.52;88127;1276;89389;-61
2022/05/09 05:28:23;;;;;;;12.10;5.70;;;;;;;25.22;30.91;101775.84;88135;1276;95033;-59
2022/05/09 05:30:32;;;;;;;10.20;4.20;;;;;;;25.22;29.27;101774.86;88119;1276;79330;-64
2022/05/09 05:32:44;;;;;;;9.50;4.30;;;;;;;25.27;30.12;101775.61;88128;1276;82737;-65
2022/05/09 05:34:54;;;;;;;7.90;3.00;;;;;;;25.48;29.26;101783.07;88144;1276;99199;-66
2022/05/09 05:37:02;;;;;;;8.10;3.40;;;;;;;25.27;29.80;101782.67;88132;1276;87934;-65
2022/05/09 05:39:15;;;;;;;6.80;3.00;;;;;;;25.18;28.64;101785.41;88128;1276;95689;-65
2022/05/09 05:41:24;;;;;;;13.60;4.40;;;;;;;25.54;29.37;101780.98;88112;1276;78357;-65
2022/05/09 05:43:33;;;;;;;8.30;3.00;;;;;;;26.23;28.88;101787.98;88130;1276;82733;-65
2022/05/09 05:45:46;;;;;;;8.70;3.30;;;;;;;26.88;29.37;101787.95;88187;1276;99168;-59
2022/05/09 05:47:58;;;;;;;9.50;3.60;;;;;;;27.02;27.13;101787.60;88137;1276;88914;-59
2022/05/09 05:50:14;;;;;;;12.60;5.90;;;;;;;27.52;27.47;101788.88;88148;1276;95869;-59
2022/05/09 05:52:23;;;;;;;11.90;5.10;;;;;;;27.81;27.45;101793.49;88145;1276;82045;-63
2022/05/09 05:54:36;;;;;;;17.70;9.30;;;;;;;27.51;27.12;101790.21;88148;1276;82762;-66
2022/05/09 05:56:46;;;;;;;7.80;3.70;;;;;;;27.90;26.96;101795.55;88134;1276;98866;-66
2022/05/09 05:58:55;;;;;;;6.50;3.00;;;;;;;28.19;26.05;101787.95;88162;1276;88436;-66
2022/05/09 06:01:05;;;;;;;6.50;4.00;;;;;;;28.24;26.03;101801.38;88131;1276;95373;-68
2022/05/09 06:03:15;;;;;;;7.90;2.70;;;;;;;28.38;25.26;101796.43;88143;1276;78550;-63
2022/05/09 06:05:24;;;;;;;6.30;3.30;;;;;;;28.27;24.70;101798.62;88161;1276;82959;-59
2022/05/09 06:07:33;;;;;;;6.00;3.40;;;;;;;28.48;24.46;101798.29;88143;1276;99633;-59
2022/05/09 06:09:47;;;;;;;12.10;5.10;;;;;;;28.25;24.04;101796.33;88155;1276;89126;-59
2022/05/09 06:11:56;;;;;;;7.80;4.90;;;;;;;28.51;24.93;101794.69;88149;1276;92814;-59
2022/05/09 06:14:07;;;;;;;15.50;7.70;;;;;;;28.90;24.79;101797.99;88164;1276;77618;-66
2022/05/09 06:16:19;;;;;;;5.70;2.80;;;;;;;29.25;24.33;101799.58;88149;1276;80552;-61
2022/05/09 06:18:31;;;;;;;8.80;2.80;;;;;;;29.00;23.35;101804.90;88158;1276;97427;-65
2022/05/09 06:20:43;;;;;;;9.20;2.50;;;;;;;29.26;24.09;101802.13;88163;1276;87561;-61
2022/05/09 06:22:54;;;;;;;16.30;5.60;;;;;;;29.62;23.83;101803.70;88139;1276;93268;-64
2022/05/09 06:25:03;;;;;;;83.00;16.10;;;;;;;30.07;23.53;101810.95;88173;1276;80042;-67
2022/05/09 06:27:15;;;;;;;75.20;14.10;;;;;;;30.33;24.07;101810.29;88149;1276;82848;-67
2022/05/09 06:29:25;;;;;;;12.10;3.40;;;;;;;30.77;23.54;101812.89;88126;1276;97556;-60
2022/05/09 06:31:35;;;;;;;7.40;3.00;;;;;;;30.83;21.98;101819.59;88131;1277;89227;-58
2022/05/09 06:33:44;;;;;;;6.60;2.30;;;;;;;30.68;21.84;101814.05;88124;1276;94496;-59
2022/05/09 06:35:54;;;;;;;9.80;2.60;;;;;;;30.52;22.47;101817.72;88144;1276;78406;-65
2022/05/09 06:38:06;;;;;;;76.60;14.20;;;;;;;31.05;22.21;101818.77;88169;1276;81954;-67
2022/05/09 06:40:16;;;;;;;22.20;6.10;;;;;;;31.08;22.28;101823.84;88114;1276;96891;-66
2022/05/09 06:42:25;;;;;;;9.50;2.70;;;;;;;31.27;21.93;101820.95;88130;1276;89498;-65
2022/05/09 06:44:35;;;;;;;8.20;2.30;;;;;;;31.59;21.40;101817.52;88152;1276;95502;-65
2022/05/09 06:46:44;;;;;;;5.90;2.80;;;;;;;31.82;20.64;101819.73;88137;1276;78129;-67
2022/05/09 06:48:54;;;;;;;6.90;4.10;;;;;;;31.75;20.88;101819.48;88139;1276;84238;-66
2022/05/09 06:51:03;;;;;;;10.90;4.00;;;;;;;31.81;20.80;101819.85;88174;1276;97381;-68
2022/05/09 06:53:15;;;;;;;20.50;4.80;;;;;;;31.92;20.75;101821.13;88132;1276;88240;-67
2022/05/09 06:55:25;;;;;;;8.30;3.60;;;;;;;32.37;20.66;101820.35;88159;1276;95588;-64
2022/05/09 06:57:37;;;;;;;6.90;3.60;;;;;;;32.58;20.10;101824.91;88151;1276;79849;-70
2022/05/09 06:59:47;;;;;;;14.20;4.50;;;;;;;32.71;20.10;101821.96;88152;1276;83183;-66
2022/05/09 07:01:58;;;;;;;16.80;4.50;;;;;;;32.76;19.95;101821.38;88123;1276;98580;-63
2022/05/09 07:04:11;;;;;;;15.70;4.10;;;;;;;33.02;20.23;101821.94;88142;1276;89167;-59
2022/05/09 07:06:20;;;;;;;7.30;2.80;;;;;;;33.09;19.62;101822.27;88138;1276;95935;-59
2022/05/09 07:08:35;;;;;;;12.30;5.80;;;;;;;32.88;20.00;101825.34;88135;1276;79567;-61
2022/05/09 07:10:45;;;;;;;43.40;11.00;;;;;;;33.01;19.93;101825.21;88164;1276;82238;-60
2022/05/09 07:12:59;;;;;;;42.00;8.40;;;;;;;32.93;19.77;101828.35;88120;1276;97564;-59
2022/05/09 07:15:18;;;;;;;51.80;10.50;;;;;;;32.54;19.87;101832.55;88165;1276;88276;-68
2022/05/09 07:17:27;;;;;;;10.10;3.70;;;;;;;32.72;19.36;101834.48;88137;1276;94823;-67
2022/05/09 07:19:36;;;;;;;6.70;3.40;;;;;;;32.72;18.92;101835.57;88159;1276;78132;-66
2022/05/09 07:21:49;;;;;;;9.30;3.10;;;;;;;32.52;18.01;101830.00;88142;1276;80902;-66
2022/05/09 07:24:02;;;;;;;6.90;2.10;;;;;;;32.10;18.95;101838.94;88167;1276;99101;-67
2022/05/09 07:26:11;;;;;;;6.60;2.00;;;;;;;31.69;18.36;101842.00;88135;1276;88300;-67
2022/05/09 07:28:26;;;;;;;3.30;1.60;;;;;;;31.41;18.35;101837.40;88133;1276;93345;-66
2022/05/09 07:30:39;;;;;;;3.40;1.70;;;;;;;31.39;18.53;101833.58;88130;1276;79194;-57
2022/05/09 07:32:56;;;;;;;5.70;1.50;;;;;;;31.41;18.89;101835.36;88130;1276;80608;-60
2022/05/09 07:35:06;;;;;;;7.50;2.10;;;;;;;31.50;18.70;101835.10;88133;1276;99247;-61
2022/05/09 07:37:18;;;;;;;20.60;4.10;;;;;;;31.06;18.84;101840.15;88153;1276;88729;-58
2022/05/09 07:39:27;;;;;;;4.60;2.70;;;;;;;30.78;18.51;101841.05;88120;1276;95495;-67
2022/05/09 07:41:39;;;;;;;4.00;1.80;;;;;;;30.30;18.34;101846.59;88090;1276;79972;-61
2022/05/09 07:43:49;;;;;;;5.30;1.60;;;;;;;29.91;18.79;101847.05;88159;1276;83186;-61
2022/05/09 07:45:59;;;;;;;6.00;2.20;;;;;;;29.90;18.55;101846.45;88160;1276;99929;-65
2022/05/09 07:48:08;;;;;;;3.80;1.60;;;;;;;29.65;18.66;101841.91;88137;1276;88732;-63
2022/05/09 07:50:19;;;;;;;8.30;2.10;;;;;;;30.10;19.34;101844.66;88133;1276;92358;-63
2022/05/09 07:52:29;;;;;;;4.50;1.80;;;;;;;30.60;18.98;101842.71;88153;1276;78655;-61
2022/05/09 07:54:37;;;;;;;4.50;2.00;;;;;;;30.58;19.13;101847.71;88102;1276;82556;-58
2022/05/09 07:56:46;;;;;;;6.30;2.00;;;;;;;30.89;19.51;101843.05;88132;1276;96675;-59
2022/05/09 07:58:59;;;;;;;5.20;1.80;;;;;;;31.15;18.75;101842.77;88161;1276;88303;-65
2022/05/09 08:01:12;;;;;;;3.90;1.70;;;;;;;31.20;18.74;101838.86;88118;1276;92273;-66
2022/05/09 08:03:25;;;;;;;7.20;2.20;;;;;;;31.32;18.75;101831.45;88141;1276;78342;-67
2022/05/09 08:05:35;;;;;;;4.40;1.70;;;;;;;31.34;18.36;101836.00;88179;1276;81138;-58
2022/05/09 08:07:49;;;;;;;3.40;1.80;;;;;;;31.54;18.17;101833.73;88059;1277;96971;-59
2022/05/09 08:10:29;;;;;;;5.90;1.70;;;;;;;31.38;18.09;101832.45;88126;1276;88873;-58
2022/05/09 08:12:39;;;;;;;5.80;1.80;;;;;;;31.77;18.12;101828.79;88036;1277;96147;-58
2022/05/09 08:14:49;;;;;;;3.40;1.70;;;;;;;31.44;17.40;101831.50;88081;1277;79354;-69
2022/05/09 08:16:59;;;;;;;5.00;1.60;;;;;;;31.12;18.02;101832.46;88018;1277;82239;-69
2022/05/09 08:19:11;;;;;;;18.90;2.60;;;;;;;31.19;18.16;101835.19;88065;1277;98835;-68
2022/05/09 08:21:23;;;;;;;4.60;1.80;;;;;;;31.06;17.92;101836.02;88027;1277;87627;-70
2022/05/09 08:23:32;;;;;;;4.70;1.90;;;;;;;31.17;18.25;101833.86;88043;1277;95918;-67
2022/05/09 08:25:45;;;;;;;5.20;1.60;;;;;;;30.91;17.61;101836.62;88013;1277;77851;-60
2022/05/09 08:27:57;;;;;;;5.30;1.50;;;;;;;30.51;17.47;101842.33;88081;1277;81362;-60
2022/05/09 08:30:08;;;;;;;4.60;1.60;;;;;;;30.08;17.51;101836.55;88023;1277;99554;-68
2022/05/09 08:32:17;;;;;;;4.40;1.50;;;;;;;29.79;18.07;101833.09;88064;1277;89430;-68
2022/05/09 08:34:28;;;;;;;5.90;1.70;;;;;;;29.85;18.39;101831.64;88012;1277;95443;-67
2022/05/09 08:36:53;;;;;;;6.60;2.00;;;;;;;30.12;18.54;101826.97;88001;1277;78780;-68
2022/05/09 08:39:03;;;;;;;3.60;1.60;;;;;;;29.93;18.12;101837.32;88032;1277;80780;-69
2022/05/09 08:41:17;;;;;;;6.40;1.70;;;;;;;29.90;17.76;101839.42;88011;1277;98869;-67
2022/05/09 08:43:48;;;;;;;3.40;1.40;;;;;;;29.61;18.05;101835.17;88028;1277;87820;-69
2022/05/09 08:46:10;;;;;;;4.70;1.30;;;;;;;29.66;18.29;101834.89;88109;1276;95455;-68
2022/05/09 08:48:42;;;;;;;3.70;1.60;;;;;;;29.81;17.78;101832.19;88108;1276;78777;-67
2022/05/09 08:51:20;;;;;;;5.30;1.90;;;;;;;29.62;18.48;101826.16;88078;1277;82452;-58
2022/05/09 08:53:33;;;;;;;4.10;1.80;;;;;;;29.52;18.80;101830.73;88112;1276;98139;-58
2022/05/09 08:55:48;;;;;;;9.20;3.60;;;;;;;29.29;18.87;101829.36;88141;1276;88841;-59
2022/05/09 08:58:02;;;;;;;10.50;3.40;;;;;;;29.46;19.05;101828.52;88156;1276;94433;-59
2022/05/09 09:00:18;;;;;;;8.10;1.80;;;;;;;29.39;18.80;101828.58;88112;1276;77792;-69
2022/05/09 09:02:35;;;;;;;6.30;2.00;;;;;;;29.12;18.78;101831.64;88122;1276;82064;-58
2022/05/09 09:04:53;;;;;;;24.00;4.60;;;;;;;28.92;19.07;101828.21;88123;1276;96535;-58
2022/05/09 09:07:28;;;;;;;12.70;3.00;;;;;;;28.57;19.07;101831.70;88146;1276;88684;-57
2022/05/09 09:10:09;;;;;;;11.10;3.20;;;;;;;27.77;19.20;101828.80;88139;1276;95047;-67
2022/05/09 09:12:46;;;;;;;14.40;3.10;;;;;;;27.77;19.90;101826.81;88133;1276;79822;-64
2022/05/09 09:15:08;;;;;;;40.60;6.90;;;;;;;27.44;20.34;101828.30;88134;1276;82733;-69
2022/05/09 09:17:33;;;;;;;10.40;2.50;;;;;;;27.10;19.97;101834.56;88147;1276;98735;-68
2022/05/09 09:20:03;;;;;;;7.20;2.50;;;;;;;26.21;19.50;101846.40;88141;1276;88460;-59
2022/05/09 09:22:26;;;;;;;7.70;2.80;;;;;;;25.39;19.95;101844.23;88115;1276;95575;-59
2022/05/09 09:25:06;;;;;;;4.30;1.60;;;;;;;24.88;20.24;101841.07;88148;1276;80806;-59
2022/05/09 09:27:41;;;;;;;7.10;2.10;;;;;;;24.45;20.67;101840.33;88153;1276;81052;-59
2022/05/09 09:29:56;;;;;;;5.10;2.00;;;;;;;24.06;21.33;101837.85;88085;1277;98800;-69
2022/05/09 09:32:11;;;;;;;6.10;1.80;;;;;;;24.00;21.43;101841.53;88143;1276;89556;-68
2022/05/09 09:34:34;;;;;;;5.00;1.60;;;;;;;23.72;21.38;101836.35;88135;1276;95200;-59
2022/05/09 09:36:51;;;;;;;4.30;1.30;;;;;;;23.62;22.34;101845.00;88123;1275;78733;-58
2022/05/09 09:39:08;;;;;;;6.30;1.90;;;;;;;23.35;21.90;101844.73;88159;1276;80953;-69
2022/05/09 09:41:25;;;;;;;4.60;1.50;;;;;;;23.18;21.92;101841.70;88130;1276;99924;-68
2022/05/09 09:43:37;;;;;;;2.50;1.20;;;;;;;22.77;22.31;101838.27;88163;1276;87603;-70
2022/05/09 09:46:01;;;;;;;5.50;2.10;;;;;;;22.66;22.57;101841.77;88110;1276;94804;-63
2022/05/09 09:48:19;;;;;;;3.80;1.40;;;;;;;22.46;22.13;101843.35;88125;1276;80210;-58
2022/05/09 09:50:29;;;;;;;4.20;1.40;;;;;;;22.38;22.02;101839.17;88151;1276;83759;-69
2022/05/09 09:52:48;;;;;;;2.10;1.20;;;;;;;22.24;22.14;101840.46;88128;1276;98249;-68
2022/05/09 09:55:07;;;;;;;3.10;1.20;;;;;;;22.02;22.49;101840.98;88119;1276;89880;-68
2022/05/09 09:57:23;;;;;;;3.50;1.10;;;;;;;21.93;22.81;101833.00;88102;1276;95335;-60
2022/05/09 09:59:37;;;;;;;2.50;1.10;;;;;;;21.90;23.01;101836.76;88147;1276;79649;-67
2022/05/09 10:02:04;;;;;;;3.80;1.30;;;;;;;21.77;23.26;101829.46;87739;1276;551641;-67
2022/05/09 10:04:34;;;;;;;3.10;1.10;;;;;;;21.69;23.80;101827.39;88671;1265;98412;31
2022/05/09 10:07:03;;;;;;;5.90;1.70;;;;;;;21.89;23.78;101828.00;88065;1275;89326;-60
2022/05/09 10:09:22;;;;;;;5.20;2.00;;;;;;;21.82;23.66;101835.52;88060;1276;93463;-59
2022/05/09 10:11:33;;;;;;;2.10;1.10;;;;;;;21.42;23.47;101833.80;88156;1276;78707;-59
2022/05/09 10:13:51;;;;;;;4.30;1.30;;;;;;;21.47;23.61;101825.30;88191;1276;82467;-58
2022/05/09 10:16:12;;;;;;;3.60;1.30;;;;;;;21.44;24.11;101825.66;88156;1274;98568;-68
2022/05/09 10:18:25;;;;;;;6.00;1.20;;;;;;;21.46;24.10;101827.80;88152;1276;89707;-68
2022/05/09 10:20:44;;;;;;;2.70;1.20;;;;;;;21.20;24.14;101828.37;88134;1276;93348;-58
2022/05/09 10:25:36;;;;;;;3.40;1.30;;;;;;;21.38;24.21;101819.70;88140;1276;79764;-60